createdAt,value
2022-09-06T00:04:29.399Z,7.37
2022-09-06T00:07:39.123Z,7.50
2022-09-06T00:10:44.538Z,7.07
2022-09-06T00:13:33.787Z,7.17
2022-09-06T00:20:09.678Z,7.30
2022-09-06T00:22:53.587Z,6.47
2022-09-06T00:25:31.922Z,6.23
2022-09-06T00:28:29.778Z,6.97
2022-09-06T00:35:06.502Z,6.27
2022-09-06T00:38:20.863Z,6.28
2022-09-06T00:41:21.228Z,6.30
2022-09-06T00:44:26.313Z,5.43
2022-09-06T00:47:36.494Z,5.27
2022-09-06T00:53:33.624Z,4.70
2022-09-06T00:56:37.438Z,6.40
2022-09-06T00:59:28.800Z,4.13
2022-09-06T01:02:17.683Z,4.60
2022-09-06T01:05:06.025Z,4.60
2022-09-06T01:11:43.063Z,6.20
2022-09-06T01:14:37.722Z,4.65
2022-09-06T01:17:49.135Z,6.30
2022-09-06T01:21:07.461Z,7.30
2022-09-06T01:24:11.851Z,6.03
2022-09-06T01:27:21.141Z,5.80
2022-09-06T01:30:17.149Z,5.93
2022-09-06T01:33:04.061Z,5.93
2022-09-06T01:36:01.870Z,5.17
2022-09-06T01:38:55.774Z,5.03
2022-09-06T01:41:27.974Z,5.40
2022-09-06T01:44:15.968Z,4.67
2022-09-06T01:47:13.739Z,5.87
2022-09-06T01:50:26.717Z,5.63
2022-09-06T01:56:53.317Z,5.53
2022-09-06T02:00:05.170Z,5.83
2022-09-06T02:03:05.093Z,5.73
2022-09-06T02:06:02.292Z,6.47
2022-09-06T02:08:42.856Z,5.00
2022-09-06T02:11:34.900Z,5.53
2022-09-06T02:14:17.982Z,5.70
2022-09-06T02:17:01.829Z,5.50
2022-09-06T02:19:57.031Z,4.87
2022-09-06T02:22:48.515Z,5.57
2022-09-06T02:25:49.352Z,5.13
2022-09-06T02:28:42.776Z,5.17
2022-09-06T02:31:42.995Z,5.50
2022-09-06T02:34:30.102Z,4.77
2022-09-06T02:37:30.691Z,5.13
2022-09-06T02:40:10.291Z,4.40
2022-09-06T02:42:59.915Z,5.37
2022-09-06T02:45:42.581Z,4.67
2022-09-06T02:51:36.069Z,4.83
2022-09-06T02:54:19.129Z,5.27
2022-09-06T02:57:01.605Z,5.03
2022-09-06T02:59:49.930Z,5.47
2022-09-06T03:02:39.501Z,4.95
2022-09-06T03:05:42.128Z,5.50
2022-09-06T03:15:07.692Z,5.80
2022-09-06T03:18:04.732Z,5.40
2022-09-06T03:24:23.855Z,6.47
2022-09-06T03:27:30.710Z,6.20
2022-09-06T03:30:18.194Z,5.90
2022-09-06T03:33:49.655Z,6.60
2022-09-06T03:40:58.036Z,6.77
2022-09-06T03:44:06.551Z,6.50
2022-09-06T03:46:46.499Z,6.87
2022-09-06T03:49:21.929Z,6.55
2022-09-06T03:52:28.123Z,6.43
2022-09-06T03:55:17.861Z,6.77
2022-09-06T03:58:23.615Z,6.30
2022-09-06T04:01:36.497Z,6.43
2022-09-06T04:10:33.371Z,6.20
2022-09-06T04:13:14.083Z,7.22
2022-09-06T04:15:53.922Z,7.17
2022-09-06T04:22:20.602Z,7.07
2022-09-06T04:25:00.221Z,7.37
2022-09-06T04:27:49.148Z,6.90
2022-09-06T04:30:25.469Z,6.70
2022-09-06T04:33:19.603Z,7.17
2022-09-06T04:36:14.120Z,7.10
2022-09-06T04:39:03.187Z,6.80
2022-09-06T04:41:38.924Z,8.30
2022-09-06T04:44:17.180Z,6.07
2022-09-06T04:47:21.264Z,7.07
2022-09-06T04:50:12.989Z,7.30
2022-09-06T04:52:56.392Z,7.20
2022-09-06T04:55:48.278Z,8.03
2022-09-06T04:58:31.440Z,8.30
2022-09-06T05:01:28.427Z,7.17
2022-09-06T05:04:15.346Z,7.83
2022-09-06T05:07:18.320Z,8.13
2022-09-06T05:10:06.571Z,8.50
2022-09-06T05:12:54.461Z,8.83
2022-09-06T05:22:01.505Z,7.73
2022-09-06T05:24:52.770Z,7.23
2022-09-06T05:27:37.746Z,8.03
2022-09-06T05:30:30.913Z,7.57
2022-09-06T05:33:30.874Z,8.37
2022-09-06T05:36:09.736Z,7.57
2022-09-06T05:38:44.934Z,7.70
2022-09-06T05:41:24.608Z,7.30
2022-09-06T05:44:08.996Z,7.13
2022-09-06T05:47:06.522Z,6.33
2022-09-06T05:49:59.921Z,7.07
2022-09-06T05:52:39.557Z,6.73
2022-09-06T05:55:26.217Z,6.50
2022-09-06T05:58:10.996Z,5.90
2022-09-06T06:00:53.067Z,5.43
2022-09-06T06:03:33.155Z,6.33
2022-09-06T06:06:15.660Z,6.07
2022-09-06T06:08:56.085Z,5.50
2022-09-06T06:14:34.187Z,6.80
2022-09-06T06:17:33.527Z,6.67
2022-09-06T06:20:11.073Z,7.00
2022-09-06T06:22:56.943Z,6.90
2022-09-06T06:26:04.945Z,6.10
2022-09-06T06:28:41.198Z,5.78
2022-09-06T06:31:25.286Z,6.03
2022-09-06T06:34:09.652Z,6.07
2022-09-06T06:36:52.144Z,5.67
2022-09-06T06:39:40.156Z,5.60
2022-09-06T06:42:34.979Z,5.30
2022-09-06T06:45:33.692Z,6.23
2022-09-06T06:48:10.170Z,5.57
2022-09-06T06:51:09.536Z,5.70
2022-09-06T06:53:51.537Z,6.23
2022-09-06T06:56:36.073Z,6.00
2022-09-06T06:59:15.490Z,5.50
2022-09-06T07:02:15.168Z,5.80
2022-09-06T07:04:53.245Z,5.70
2022-09-06T07:10:37.046Z,6.30
2022-09-06T07:13:22.660Z,6.07
2022-09-06T07:15:56.297Z,6.87
2022-09-06T07:18:36.403Z,6.90
2022-09-06T07:24:45.590Z,6.53
2022-09-06T07:30:24.946Z,6.25
2022-09-06T07:33:14.181Z,6.80
2022-09-06T07:36:10.766Z,6.80
2022-09-06T07:38:59.819Z,6.23
2022-09-06T07:41:49.844Z,5.63
2022-09-06T07:44:35.417Z,6.30
2022-09-06T07:53:31.030Z,6.93
2022-09-06T07:56:14.573Z,6.20
2022-09-06T07:59:04.643Z,6.80
2022-09-06T08:01:53.906Z,6.83
2022-09-06T08:04:30.891Z,7.47
2022-09-06T08:10:26.708Z,6.77
2022-09-06T08:13:40.353Z,7.30
2022-09-06T08:16:43.650Z,7.73
2022-09-06T08:19:33.103Z,8.43
2022-09-06T08:22:27.331Z,9.87
2022-09-06T08:25:13.377Z,7.93
2022-09-06T08:28:22.168Z,8.93
2022-09-06T08:34:15.853Z,9.50
2022-09-06T08:37:06.703Z,9.38
2022-09-06T08:39:47.614Z,9.33
2022-09-06T08:43:16.086Z,8.63
2022-09-06T08:46:14.757Z,9.48
2022-09-06T08:49:08.208Z,10.70
2022-09-06T08:52:26.019Z,13.33
2022-09-06T08:55:41.774Z,14.33
2022-09-06T08:58:38.537Z,8.47
2022-09-06T09:01:22.687Z,22.40
2022-09-06T09:04:12.185Z,11.53
2022-09-06T09:06:57.252Z,12.70
2022-09-06T09:09:39.165Z,11.87
2022-09-06T09:12:31.911Z,13.37
2022-09-06T09:15:17.315Z,11.63
2022-09-06T09:21:08.511Z,12.17
2022-09-06T09:23:50.737Z,12.90
2022-09-06T09:26:34.507Z,11.10
2022-09-06T09:29:29.525Z,9.93
2022-09-06T09:32:18.107Z,8.97
2022-09-06T09:34:55.599Z,8.00
2022-09-06T09:37:51.254Z,7.20
2022-09-06T09:40:37.458Z,11.40
2022-09-06T09:43:22.570Z,15.17
2022-09-06T09:46:41.207Z,22.43
2022-09-06T09:49:48.981Z,25.75
2022-09-06T09:52:33.000Z,19.83
2022-09-06T09:55:11.145Z,11.73
2022-09-06T09:58:12.853Z,16.03
2022-09-06T10:01:01.136Z,13.47
2022-09-06T10:09:49.633Z,32.90
2022-09-06T10:12:40.469Z,22.60
2022-09-06T10:16:00.428Z,25.87
2022-09-06T10:18:46.059Z,28.07
2022-09-06T10:21:26.697Z,26.27
2022-09-06T10:24:35.463Z,35.17
2022-09-06T10:27:11.092Z,24.17
2022-09-06T10:29:56.837Z,27.33
2022-09-06T10:32:57.230Z,26.80
2022-09-06T10:35:45.820Z,22.87
2022-09-06T10:38:50.236Z,10.27
2022-09-06T10:41:52.527Z,8.70
2022-09-06T10:45:04.108Z,9.10
2022-09-06T10:48:13.882Z,8.23
2022-09-06T10:51:10.141Z,8.03
2022-09-06T10:54:06.573Z,7.53
2022-09-06T10:57:07.354Z,8.00
2022-09-06T10:59:55.321Z,7.97
2022-09-06T11:05:59.850Z,7.90
2022-09-06T11:08:46.868Z,7.90
2022-09-06T11:11:39.066Z,8.63
2022-09-06T11:14:46.027Z,7.60
2022-09-06T11:17:30.496Z,7.17
2022-09-06T11:20:14.175Z,6.80
2022-09-06T11:23:14.307Z,6.23
2022-09-06T11:26:23.549Z,3.90
2022-09-06T11:29:13.398Z,4.90
2022-09-06T11:35:01.537Z,4.03
2022-09-06T11:37:53.579Z,4.47
2022-09-06T11:40:43.784Z,4.67
2022-09-06T11:44:08.253Z,8.87
2022-09-06T11:47:18.980Z,6.60
2022-09-06T11:49:56.762Z,4.17
2022-09-06T11:53:22.726Z,4.47
2022-09-06T11:56:36.901Z,3.43
2022-09-06T11:59:26.675Z,3.40
2022-09-06T12:02:40.732Z,3.53
2022-09-06T12:05:37.333Z,3.20
2022-09-06T12:09:02.564Z,3.30
2022-09-06T12:11:43.657Z,3.17
2022-09-06T12:15:08.735Z,2.73
2022-09-06T12:18:00.859Z,3.60
2022-09-06T12:21:19.968Z,3.33
2022-09-06T12:24:09.445Z,2.90
2022-09-06T12:27:21.880Z,3.30
2022-09-06T12:30:24.429Z,3.47
2022-09-06T12:36:25.420Z,3.80
2022-09-06T12:39:24.775Z,5.80
2022-09-06T12:42:05.586Z,4.47
2022-09-06T12:44:42.182Z,5.00
2022-09-06T12:47:27.290Z,5.73
2022-09-06T12:50:19.900Z,3.73
2022-09-06T12:53:05.239Z,3.03
2022-09-06T12:55:50.901Z,3.10
2022-09-06T12:58:35.947Z,2.93
2022-09-06T13:04:48.593Z,3.00
2022-09-06T13:07:36.769Z,3.00
2022-09-06T13:10:40.896Z,3.00
2022-09-06T13:13:35.351Z,3.07
2022-09-06T13:16:21.724Z,2.70
2022-09-06T13:19:05.254Z,3.23
2022-09-06T13:21:59.743Z,3.20
2022-09-06T13:25:12.158Z,3.87
2022-09-06T13:28:12.636Z,2.93
2022-09-06T13:30:52.298Z,2.90
2022-09-06T13:33:34.725Z,2.90
2022-09-06T13:36:36.537Z,3.87
2022-09-06T13:39:14.392Z,3.20
2022-09-06T13:42:15.084Z,3.50
2022-09-06T13:44:58.828Z,3.40
2022-09-06T13:47:46.275Z,3.40
2022-09-06T13:50:23.618Z,3.43
2022-09-06T13:53:14.405Z,3.70
2022-09-06T13:55:55.541Z,2.93
2022-09-06T13:58:39.383Z,3.10
2022-09-06T14:01:21.628Z,3.17
2022-09-06T14:04:42.331Z,3.70
2022-09-06T14:07:23.451Z,3.87
2022-09-06T14:10:04.288Z,3.67
2022-09-06T14:12:49.385Z,3.60
2022-09-06T14:15:36.262Z,3.67
2022-09-06T14:21:16.084Z,3.80
2022-09-06T14:24:03.887Z,3.42
2022-09-06T14:26:48.494Z,3.85
2022-09-06T14:29:37.080Z,4.00
2022-09-06T14:32:45.128Z,4.43
2022-09-06T14:35:27.025Z,4.30
2022-09-06T14:38:17.559Z,4.60
2022-09-06T14:43:44.424Z,4.87
2022-09-06T14:49:05.260Z,4.73
2022-09-06T14:51:44.807Z,5.07
2022-09-06T14:54:34.003Z,4.93
2022-09-06T15:00:09.094Z,5.03
2022-09-06T15:02:49.492Z,5.47
2022-09-06T15:05:31.430Z,5.03
2022-09-06T15:08:17.652Z,5.27
2022-09-06T15:11:11.116Z,4.27
2022-09-06T15:14:12.968Z,4.97
2022-09-06T15:16:55.332Z,4.57
2022-09-06T15:19:46.911Z,5.13
2022-09-06T15:22:38.520Z,6.00
2022-09-06T15:25:31.447Z,5.27
2022-09-06T15:28:36.154Z,6.00
2022-09-06T15:31:27.385Z,4.67
2022-09-06T15:34:17.102Z,4.77
2022-09-06T15:36:54.887Z,4.63
2022-09-06T15:39:37.012Z,4.57
2022-09-06T15:42:23.348Z,5.03
2022-09-06T15:45:14.413Z,5.77
2022-09-06T15:51:03.866Z,4.82
2022-09-06T15:53:50.985Z,4.33
2022-09-06T15:56:34.555Z,4.68
2022-09-06T15:59:10.106Z,4.37
2022-09-06T16:01:49.751Z,4.53
2022-09-06T16:04:35.829Z,4.67
2022-09-06T16:07:14.955Z,4.50
2022-09-06T16:10:03.964Z,4.00
2022-09-06T16:13:01.545Z,4.43
2022-09-06T16:15:40.140Z,4.37
2022-09-06T16:18:27.566Z,4.05
2022-09-06T16:21:12.024Z,4.60
2022-09-06T16:23:58.658Z,4.27
2022-09-06T16:26:48.325Z,4.17
2022-09-06T16:29:47.106Z,5.07
2022-09-06T16:32:41.145Z,4.40
2022-09-06T16:35:21.591Z,4.07
2022-09-06T16:38:02.254Z,4.40
2022-09-06T16:40:53.452Z,5.20
2022-09-06T16:43:50.148Z,4.40
2022-09-06T16:46:40.317Z,4.47
2022-09-06T16:49:30.229Z,3.80
2022-09-06T16:52:25.491Z,4.60
2022-09-06T16:55:13.217Z,3.77
2022-09-06T16:57:58.787Z,4.25
2022-09-06T17:00:35.852Z,4.50
2022-09-06T17:03:40.230Z,4.43
2022-09-06T17:06:40.654Z,4.83
2022-09-06T17:09:23.895Z,4.53
2022-09-06T17:12:08.273Z,5.13
2022-09-06T17:14:54.131Z,4.97
2022-09-06T17:17:31.467Z,4.70
2022-09-06T17:20:28.780Z,4.33
2022-09-06T17:23:07.375Z,3.83
2022-09-06T17:26:03.696Z,4.43
2022-09-06T17:28:46.677Z,4.07
2022-09-06T17:34:16.191Z,5.13
2022-09-06T17:37:03.628Z,3.93
2022-09-06T17:39:42.216Z,5.43
2022-09-06T17:42:43.581Z,4.80
2022-09-06T17:45:32.357Z,4.70
2022-09-06T17:48:09.217Z,4.90
2022-09-06T17:50:50.557Z,4.77
2022-09-06T17:53:51.258Z,5.00
2022-09-06T17:56:38.450Z,4.87
2022-09-06T17:59:19.401Z,4.70
2022-09-06T18:01:54.652Z,3.60
2022-09-06T18:04:33.392Z,4.00
2022-09-06T18:07:42.781Z,3.67
2022-09-06T18:10:29.216Z,4.53
2022-09-06T18:13:07.256Z,4.63
2022-09-06T18:15:53.293Z,4.07
2022-09-06T18:18:30.317Z,3.90
2022-09-06T18:21:17.784Z,3.07
2022-09-06T18:24:05.818Z,2.30
2022-09-06T18:26:53.320Z,2.05
2022-09-06T18:29:39.417Z,2.07
2022-09-06T18:32:17.806Z,2.67
2022-09-06T18:34:58.717Z,3.00
2022-09-06T18:37:39.935Z,3.10
2022-09-06T18:40:20.974Z,2.77
2022-09-06T18:43:19.702Z,3.03
2022-09-06T18:46:02.137Z,4.00
2022-09-06T18:49:12.716Z,3.40
2022-09-06T18:52:04.414Z,3.60
2022-09-06T18:57:23.435Z,3.93
2022-09-06T19:00:12.173Z,3.45
2022-09-06T19:03:03.251Z,3.90
2022-09-06T19:06:04.219Z,5.23
2022-09-06T19:08:40.481Z,5.93
2022-09-06T19:11:20.985Z,5.07
2022-09-06T19:14:14.972Z,5.77
2022-09-06T19:17:02.875Z,6.80
2022-09-06T19:19:49.750Z,6.60
2022-09-06T19:22:35.417Z,6.60
2022-09-06T19:25:37.235Z,7.27
2022-09-06T19:28:19.655Z,7.37
2022-09-06T19:31:02.880Z,8.83
2022-09-06T19:33:49.551Z,8.47
2022-09-06T19:36:56.235Z,9.03
2022-09-06T19:39:48.402Z,8.37
2022-09-06T19:42:26.705Z,8.77
2022-09-06T19:45:06.871Z,8.57
2022-09-06T19:50:48.229Z,9.00
2022-09-06T19:53:28.722Z,9.77
2022-09-06T19:56:02.412Z,11.00
2022-09-06T19:58:46.198Z,10.60
2022-09-06T20:01:33.159Z,11.03
2022-09-06T20:04:24.864Z,10.80
2022-09-06T20:10:28.334Z,11.57
2022-09-06T20:13:22.360Z,11.77
2022-09-06T20:16:05.769Z,11.67
2022-09-06T23:43:25.342Z,3.17
2022-09-06T23:46:18.288Z,2.90
2022-09-06T23:49:06.608Z,3.20
2022-09-06T23:52:07.872Z,3.57
2022-09-06T23:54:56.852Z,3.23
